sensor_id;sensor_type;location;lat;lon;timestamp;temperature;humidity
45785;DHT22;31489;51.404;5.474;2022-09-14T00:01:38;22.30;65.60
45785;DHT22;31489;51.404;5.474;2022-09-14T00:04:18;22.20;65.30
45785;DHT22;31489;51.404;5.474;2022-09-14T00:06:45;22.20;65.40
45785;DHT22;31489;51.404;5.474;2022-09-14T00:09:20;22.10;65.20
45785;DHT22;31489;51.404;5.474;2022-09-14T00:11:46;22.10;66.10
45785;DHT22;31489;51.404;5.474;2022-09-14T00:14:12;22.10;65.30
45785;DHT22;31489;51.404;5.474;2022-09-14T00:16:39;22.00;65.20
45785;DHT22;31489;51.404;5.474;2022-09-14T00:19:17;22.00;65.40
45785;DHT22;31489;51.404;5.474;2022-09-14T00:21:43;21.90;65.60
45785;DHT22;31489;51.404;5.474;2022-09-14T00:24:10;22.00;65.60
45785;DHT22;31489;51.404;5.474;2022-09-14T00:26:35;21.90;65.80
45785;DHT22;31489;51.404;5.474;2022-09-14T00:29:02;21.90;65.90
45785;DHT22;31489;51.404;5.474;2022-09-14T00:31:33;21.90;66.10
45785;DHT22;31489;51.404;5.474;2022-09-14T00:34:00;21.90;66.10
45785;DHT22;31489;51.404;5.474;2022-09-14T00:36:27;21.90;66.00
45785;DHT22;31489;51.404;5.474;2022-09-14T00:38:54;21.80;66.30
45785;DHT22;31489;51.404;5.474;2022-09-14T00:41:25;21.80;66.20
45785;DHT22;31489;51.404;5.474;2022-09-14T00:46:19;21.80;66.20
45785;DHT22;31489;51.404;5.474;2022-09-14T00:48:45;21.80;66.00
45785;DHT22;31489;51.404;5.474;2022-09-14T00:51:11;21.70;66.30
45785;DHT22;31489;51.404;5.474;2022-09-14T00:53:38;21.80;66.40
45785;DHT22;31489;51.404;5.474;2022-09-14T00:56:04;21.70;66.10
45785;DHT22;31489;51.404;5.474;2022-09-14T00:58:30;21.70;66.10
45785;DHT22;31489;51.404;5.474;2022-09-14T01:00:55;21.70;66.10
45785;DHT22;31489;51.404;5.474;2022-09-14T01:03:23;21.60;66.40
45785;DHT22;31489;51.404;5.474;2022-09-14T01:06:18;21.60;66.90
45785;DHT22;31489;51.404;5.474;2022-09-14T01:09:25;21.60;66.50
45785;DHT22;31489;51.404;5.474;2022-09-14T01:12:03;21.60;67.30
45785;DHT22;31489;51.404;5.474;2022-09-14T01:14:47;21.60;67.20
45785;DHT22;31489;51.404;5.474;2022-09-14T01:20:18;21.50;66.60
45785;DHT22;31489;51.404;5.474;2022-09-14T01:23:32;21.50;67.30
45785;DHT22;31489;51.404;5.474;2022-09-14T01:26:01;21.50;66.60
45785;DHT22;31489;51.404;5.474;2022-09-14T01:28:49;21.50;66.50
45785;DHT22;31489;51.404;5.474;2022-09-14T01:31:28;21.40;67.10
45785;DHT22;31489;51.404;5.474;2022-09-14T01:34:08;21.40;67.00
45785;DHT22;31489;51.404;5.474;2022-09-14T01:36:38;21.40;67.10
45785;DHT22;31489;51.404;5.474;2022-09-14T01:39:06;21.30;67.00
45785;DHT22;31489;51.404;5.474;2022-09-14T01:41:34;21.40;66.90
45785;DHT22;31489;51.404;5.474;2022-09-14T01:44:14;21.30;66.50
45785;DHT22;31489;51.404;5.474;2022-09-14T01:46:54;21.30;67.40
45785;DHT22;31489;51.404;5.474;2022-09-14T01:51:58;21.30;67.20
45785;DHT22;31489;51.404;5.474;2022-09-14T01:54:29;21.30;67.50
45785;DHT22;31489;51.404;5.474;2022-09-14T01:57:05;21.30;67.70
45785;DHT22;31489;51.404;5.474;2022-09-14T01:59:38;21.20;67.60
45785;DHT22;31489;51.404;5.474;2022-09-14T02:05:04;21.20;68.10
45785;DHT22;31489;51.404;5.474;2022-09-14T02:07:31;21.20;67.90
45785;DHT22;31489;51.404;5.474;2022-09-14T02:09:57;21.20;67.40
45785;DHT22;31489;51.404;5.474;2022-09-14T02:12:23;21.20;67.80
45785;DHT22;31489;51.404;5.474;2022-09-14T02:14:50;21.20;68.00
45785;DHT22;31489;51.404;5.474;2022-09-14T02:17:17;21.20;67.90
45785;DHT22;31489;51.404;5.474;2022-09-14T02:19:49;21.20;67.90
45785;DHT22;31489;51.404;5.474;2022-09-14T02:22:15;21.20;68.60
45785;DHT22;31489;51.404;5.474;2022-09-14T02:24:41;21.20;67.80
45785;DHT22;31489;51.404;5.474;2022-09-14T02:27:07;21.20;67.90
45785;DHT22;31489;51.404;5.474;2022-09-14T02:29:33;21.10;67.90
45785;DHT22;31489;51.404;5.474;2022-09-14T02:34:57;21.10;68.70
45785;DHT22;31489;51.404;5.474;2022-09-14T02:49:04;21.10;68.50
45785;DHT22;31489;51.404;5.474;2022-09-14T02:51:47;21.10;68.50
45785;DHT22;31489;51.404;5.474;2022-09-14T02:54:21;21.10;68.50
45785;DHT22;31489;51.404;5.474;2022-09-14T02:56:49;21.10;68.60
45785;DHT22;31489;51.404;5.474;2022-09-14T02:59:15;21.10;68.30
45785;DHT22;31489;51.404;5.474;2022-09-14T03:01:40;21.00;68.40
45785;DHT22;31489;51.404;5.474;2022-09-14T03:04:06;21.10;68.60
45785;DHT22;31489;51.404;5.474;2022-09-14T03:06:32;21.10;68.50
45785;DHT22;31489;51.404;5.474;2022-09-14T03:08:57;21.00;68.50
45785;DHT22;31489;51.404;5.474;2022-09-14T03:11:23;21.00;68.60
45785;DHT22;31489;51.404;5.474;2022-09-14T03:13:48;21.00;68.70
45785;DHT22;31489;51.404;5.474;2022-09-14T03:16:16;21.00;68.60
45785;DHT22;31489;51.404;5.474;2022-09-14T03:18:42;21.00;68.50
45785;DHT22;31489;51.404;5.474;2022-09-14T03:21:11;21.00;68.60
45785;DHT22;31489;51.404;5.474;2022-09-14T03:23:38;21.00;68.60
45785;DHT22;31489;51.404;5.474;2022-09-14T03:26:09;21.00;68.80
45785;DHT22;31489;51.404;5.474;2022-09-14T03:28:36;21.00;68.80
45785;DHT22;31489;51.404;5.474;2022-09-14T03:31:04;21.00;68.30
45785;DHT22;31489;51.404;5.474;2022-09-14T03:33:30;21.00;68.30
45785;DHT22;31489;51.404;5.474;2022-09-14T03:35:56;20.90;68.60
45785;DHT22;31489;51.404;5.474;2022-09-14T03:38:23;20.90;68.70
45785;DHT22;31489;51.404;5.474;2022-09-14T03:40:51;20.90;68.90
45785;DHT22;31489;51.404;5.474;2022-09-14T03:43:17;20.90;68.80
45785;DHT22;31489;51.404;5.474;2022-09-14T03:45:42;20.90;68.60
45785;DHT22;31489;51.404;5.474;2022-09-14T03:48:08;20.80;68.90
45785;DHT22;31489;51.404;5.474;2022-09-14T03:50:36;20.80;68.70
45785;DHT22;31489;51.404;5.474;2022-09-14T03:53:02;20.80;68.90
45785;DHT22;31489;51.404;5.474;2022-09-14T03:55:29;20.80;68.70
45785;DHT22;31489;51.404;5.474;2022-09-14T03:57:55;20.80;68.70
45785;DHT22;31489;51.404;5.474;2022-09-14T04:00:21;20.80;68.70
45785;DHT22;31489;51.404;5.474;2022-09-14T04:02:47;20.80;68.90
45785;DHT22;31489;51.404;5.474;2022-09-14T04:05:13;20.80;68.70
45785;DHT22;31489;51.404;5.474;2022-09-14T04:07:38;20.80;68.50
45785;DHT22;31489;51.404;5.474;2022-09-14T04:10:05;20.80;68.70
45785;DHT22;31489;51.404;5.474;2022-09-14T04:12:35;20.70;68.80
45785;DHT22;31489;51.404;5.474;2022-09-14T04:15:01;20.70;68.70
45785;DHT22;31489;51.404;5.474;2022-09-14T04:17:28;20.70;68.60
45785;DHT22;31489;51.404;5.474;2022-09-14T04:19:53;20.70;68.60
45785;DHT22;31489;51.404;5.474;2022-09-14T04:22:19;20.70;68.70
45785;DHT22;31489;51.404;5.474;2022-09-14T04:24:45;20.70;68.80
45785;DHT22;31489;51.404;5.474;2022-09-14T04:27:10;20.70;68.80
45785;DHT22;31489;51.404;5.474;2022-09-14T04:29:36;20.60;69.00
45785;DHT22;31489;51.404;5.474;2022-09-14T04:32:02;20.60;68.90
45785;DHT22;31489;51.404;5.474;2022-09-14T04:34:28;20.60;68.50
45785;DHT22;31489;51.404;5.474;2022-09-14T04:36:53;20.60;68.90
45785;DHT22;31489;51.404;5.474;2022-09-14T04:39:19;20.60;69.00
45785;DHT22;31489;51.404;5.474;2022-09-14T04:41:45;20.60;69.00
45785;DHT22;31489;51.404;5.474;2022-09-14T04:44:11;20.60;68.80
45785;DHT22;31489;51.404;5.474;2022-09-14T04:46:37;20.50;68.90
45785;DHT22;31489;51.404;5.474;2022-09-14T04:49:04;20.50;68.80
45785;DHT22;31489;51.404;5.474;2022-09-14T04:51:32;20.50;69.00
45785;DHT22;31489;51.404;5.474;2022-09-14T04:53:59;20.50;69.10
45785;DHT22;31489;51.404;5.474;2022-09-14T04:56:26;20.50;69.20
45785;DHT22;31489;51.404;5.474;2022-09-14T04:58:55;20.50;69.20
45785;DHT22;31489;51.404;5.474;2022-09-14T05:01:31;20.50;69.40
45785;DHT22;31489;51.404;5.474;2022-09-14T05:03:57;20.50;69.40
45785;DHT22;31489;51.404;5.474;2022-09-14T05:06:25;20.50;69.20
45785;DHT22;31489;51.404;5.474;2022-09-14T05:08:52;20.50;69.10
45785;DHT22;31489;51.404;5.474;2022-09-14T05:11:23;20.50;69.00
45785;DHT22;31489;51.404;5.474;2022-09-14T05:13:49;20.40;68.90
45785;DHT22;31489;51.404;5.474;2022-09-14T05:18:41;20.40;69.00
45785;DHT22;31489;51.404;5.474;2022-09-14T05:21:09;20.40;69.30
45785;DHT22;31489;51.404;5.474;2022-09-14T05:23:35;20.40;69.40
45785;DHT22;31489;51.404;5.474;2022-09-14T05:26:02;20.40;69.60
45785;DHT22;31489;51.404;5.474;2022-09-14T05:28:28;20.40;69.40
45785;DHT22;31489;51.404;5.474;2022-09-14T05:30:54;20.40;69.30
45785;DHT22;31489;51.404;5.474;2022-09-14T05:33:20;20.40;69.50
45785;DHT22;31489;51.404;5.474;2022-09-14T05:35:47;20.40;69.30
45785;DHT22;31489;51.404;5.474;2022-09-14T05:38:13;20.40;69.60
45785;DHT22;31489;51.404;5.474;2022-09-14T05:40:38;20.40;69.60
45785;DHT22;31489;51.404;5.474;2022-09-14T05:43:04;20.30;69.50
45785;DHT22;31489;51.404;5.474;2022-09-14T05:45:29;20.30;69.60
45785;DHT22;31489;51.404;5.474;2022-09-14T05:48:02;20.40;69.70
45785;DHT22;31489;51.404;5.474;2022-09-14T05:50:32;20.30;69.80
45785;DHT22;31489;51.404;5.474;2022-09-14T05:52:57;20.30;69.50
45785;DHT22;31489;51.404;5.474;2022-09-14T05:55:23;20.30;69.60
45785;DHT22;31489;51.404;5.474;2022-09-14T05:57:49;20.30;69.70
45785;DHT22;31489;51.404;5.474;2022-09-14T06:00:16;20.30;69.70
45785;DHT22;31489;51.404;5.474;2022-09-14T06:02:46;20.30;69.70
45785;DHT22;31489;51.404;5.474;2022-09-14T06:05:11;20.30;69.80
45785;DHT22;31489;51.404;5.474;2022-09-14T06:07:37;20.20;70.10
45785;DHT22;31489;51.404;5.474;2022-09-14T06:10:03;20.20;69.50
45785;DHT22;31489;51.404;5.474;2022-09-14T06:12:28;20.20;69.50
45785;DHT22;31489;51.404;5.474;2022-09-14T06:14:54;20.20;69.60
45785;DHT22;31489;51.404;5.474;2022-09-14T06:17:19;20.20;69.70
45785;DHT22;31489;51.404;5.474;2022-09-14T06:19:45;20.20;69.60
45785;DHT22;31489;51.404;5.474;2022-09-14T06:22:10;20.20;69.70
45785;DHT22;31489;51.404;5.474;2022-09-14T06:24:36;20.10;69.80
45785;DHT22;31489;51.404;5.474;2022-09-14T06:27:02;20.20;69.90
45785;DHT22;31489;51.404;5.474;2022-09-14T06:29:28;20.10;69.60
45785;DHT22;31489;51.404;5.474;2022-09-14T06:31:53;20.10;69.60
45785;DHT22;31489;51.404;5.474;2022-09-14T06:34:19;20.10;69.90
45785;DHT22;31489;51.404;5.474;2022-09-14T06:36:44;20.10;70.10
45785;DHT22;31489;51.404;5.474;2022-09-14T06:39:11;20.10;70.20
45785;DHT22;31489;51.404;5.474;2022-09-14T06:41:36;20.10;69.90
45785;DHT22;31489;51.404;5.474;2022-09-14T06:44:02;20.10;70.20
45785;DHT22;31489;51.404;5.474;2022-09-14T06:46:31;20.10;70.20
45785;DHT22;31489;51.404;5.474;2022-09-14T06:49:06;20.00;70.20
45785;DHT22;31489;51.404;5.474;2022-09-14T06:51:37;20.00;70.40
45785;DHT22;31489;51.404;5.474;2022-09-14T06:54:04;20.00;70.40
45785;DHT22;31489;51.404;5.474;2022-09-14T06:56:32;20.00;70.50
45785;DHT22;31489;51.404;5.474;2022-09-14T06:58:58;20.00;70.40
45785;DHT22;31489;51.404;5.474;2022-09-14T07:01:24;20.00;70.70
45785;DHT22;31489;51.404;5.474;2022-09-14T07:03:51;20.00;70.70
45785;DHT22;31489;51.404;5.474;2022-09-14T07:06:39;20.00;70.80
45785;DHT22;31489;51.404;5.474;2022-09-14T07:09:05;20.00;71.40
45785;DHT22;31489;51.404;5.474;2022-09-14T07:11:31;20.00;70.90
45785;DHT22;31489;51.404;5.474;2022-09-14T07:13:56;20.00;70.90
45785;DHT22;31489;51.404;5.474;2022-09-14T07:16:24;20.00;70.90
45785;DHT22;31489;51.404;5.474;2022-09-14T07:18:54;20.00;70.70
45785;DHT22;31489;51.404;5.474;2022-09-14T07:21:20;19.90;70.90
45785;DHT22;31489;51.404;5.474;2022-09-14T07:23:46;20.00;70.90
45785;DHT22;31489;51.404;5.474;2022-09-14T07:26:18;20.00;71.00
45785;DHT22;31489;51.404;5.474;2022-09-14T07:28:46;20.00;70.50
45785;DHT22;31489;51.404;5.474;2022-09-14T07:31:18;20.00;70.80
45785;DHT22;31489;51.404;5.474;2022-09-14T07:33:45;20.00;71.00
45785;DHT22;31489;51.404;5.474;2022-09-14T07:36:12;20.00;70.70
45785;DHT22;31489;51.404;5.474;2022-09-14T07:38:38;20.00;70.90
45785;DHT22;31489;51.404;5.474;2022-09-14T07:41:04;20.00;71.60
45785;DHT22;31489;51.404;5.474;2022-09-14T07:43:29;20.00;71.00
45785;DHT22;31489;51.404;5.474;2022-09-14T07:45:55;20.00;71.20
45785;DHT22;31489;51.404;5.474;2022-09-14T07:48:21;20.00;71.60
45785;DHT22;31489;51.404;5.474;2022-09-14T07:50:57;20.00;71.50
45785;DHT22;31489;51.404;5.474;2022-09-14T07:53:23;20.00;71.60
45785;DHT22;31489;51.404;5.474;2022-09-14T07:55:49;20.10;71.60
45785;DHT22;31489;51.404;5.474;2022-09-14T07:58:14;20.00;71.50
45785;DHT22;31489;51.404;5.474;2022-09-14T08:00:40;20.10;71.60
45785;DHT22;31489;51.404;5.474;2022-09-14T08:03:05;20.10;71.80
45785;DHT22;31489;51.404;5.474;2022-09-14T08:05:31;20.10;72.10
45785;DHT22;31489;51.404;5.474;2022-09-14T08:07:57;20.10;72.00
45785;DHT22;31489;51.404;5.474;2022-09-14T08:10:23;20.10;71.70
45785;DHT22;31489;51.404;5.474;2022-09-14T08:12:54;20.10;71.70
45785;DHT22;31489;51.404;5.474;2022-09-14T08:15:21;20.20;72.20
45785;DHT22;31489;51.404;5.474;2022-09-14T08:17:47;20.20;72.20
45785;DHT22;31489;51.404;5.474;2022-09-14T08:20:13;20.20;71.80
45785;DHT22;31489;51.404;5.474;2022-09-14T08:22:43;20.20;71.90
45785;DHT22;31489;51.404;5.474;2022-09-14T08:25:09;20.20;71.80
45785;DHT22;31489;51.404;5.474;2022-09-14T08:27:35;20.20;71.90
45785;DHT22;31489;51.404;5.474;2022-09-14T08:30:01;20.30;71.90
45785;DHT22;31489;51.404;5.474;2022-09-14T08:32:26;20.30;71.60
45785;DHT22;31489;51.404;5.474;2022-09-14T08:34:52;20.30;71.40
45785;DHT22;31489;51.404;5.474;2022-09-14T08:37:18;20.30;71.20
45785;DHT22;31489;51.404;5.474;2022-09-14T08:39:43;20.30;71.90
45785;DHT22;31489;51.404;5.474;2022-09-14T08:42:17;20.30;71.40
45785;DHT22;31489;51.404;5.474;2022-09-14T08:45:03;20.30;72.10
45785;DHT22;31489;51.404;5.474;2022-09-14T08:47:33;20.30;71.80
45785;DHT22;31489;51.404;5.474;2022-09-14T08:50:16;20.30;71.80
45785;DHT22;31489;51.404;5.474;2022-09-14T08:52:45;20.20;71.50
45785;DHT22;31489;51.404;5.474;2022-09-14T09:00:52;20.30;71.90
45785;DHT22;31489;51.404;5.474;2022-09-14T09:03:32;20.30;72.10
45785;DHT22;31489;51.404;5.474;2022-09-14T09:06:16;20.30;72.10
45785;DHT22;31489;51.404;5.474;2022-09-14T09:11:34;20.30;71.70
45785;DHT22;31489;51.404;5.474;2022-09-14T09:14:06;20.30;71.80
45785;DHT22;31489;51.404;5.474;2022-09-14T09:16:36;20.30;71.80
45785;DHT22;31489;51.404;5.474;2022-09-14T09:19:05;20.30;72.10
45785;DHT22;31489;51.404;5.474;2022-09-14T09:21:40;20.30;72.30
45785;DHT22;31489;51.404;5.474;2022-09-14T09:24:13;20.40;72.30
45785;DHT22;31489;51.404;5.474;2022-09-14T09:26:41;20.40;72.30
45785;DHT22;31489;51.404;5.474;2022-09-14T09:29:08;20.30;71.90
45785;DHT22;31489;51.404;5.474;2022-09-14T09:31:37;20.40;71.90
45785;DHT22;31489;51.404;5.474;2022-09-14T09:34:04;20.40;72.00
45785;DHT22;31489;51.404;5.474;2022-09-14T09:36:34;20.40;71.90
45785;DHT22;31489;51.404;5.474;2022-09-14T09:39:01;20.40;72.80
45785;DHT22;31489;51.404;5.474;2022-09-14T09:41:30;20.40;72.60
45785;DHT22;31489;51.404;5.474;2022-09-14T09:44:05;20.40;72.70
45785;DHT22;31489;51.404;5.474;2022-09-14T09:46:38;20.40;72.70
45785;DHT22;31489;51.404;5.474;2022-09-14T09:49:31;20.40;72.90
45785;DHT22;31489;51.404;5.474;2022-09-14T09:52:10;20.50;73.30
45785;DHT22;31489;51.404;5.474;2022-09-14T09:54:37;20.50;72.90
45785;DHT22;31489;51.404;5.474;2022-09-14T09:57:06;20.50;72.60
45785;DHT22;31489;51.404;5.474;2022-09-14T09:59:42;20.50;72.70
45785;DHT22;31489;51.404;5.474;2022-09-14T10:02:30;20.50;72.30
45785;DHT22;31489;51.404;5.474;2022-09-14T10:07:36;20.50;72.60
45785;DHT22;31489;51.404;5.474;2022-09-14T10:10:09;20.50;72.40
45785;DHT22;31489;51.404;5.474;2022-09-14T10:12:37;20.50;72.70
45785;DHT22;31489;51.404;5.474;2022-09-14T10:17:39;20.50;72.30
45785;DHT22;31489;51.404;5.474;2022-09-14T10:20:06;20.50;72.30
45785;DHT22;31489;51.404;5.474;2022-09-14T10:22:33;20.50;72.30
45785;DHT22;31489;51.404;5.474;2022-09-14T10:25:01;20.50;72.30
45785;DHT22;31489;51.404;5.474;2022-09-14T10:27:47;20.50;72.60
45785;DHT22;31489;51.404;5.474;2022-09-14T10:30:18;20.50;72.70
45785;DHT22;31489;51.404;5.474;2022-09-14T10:40:44;20.60;71.80
45785;DHT22;31489;51.404;5.474;2022-09-14T10:43:21;20.50;72.10
45785;DHT22;31489;51.404;5.474;2022-09-14T10:45:51;20.50;72.20
45785;DHT22;31489;51.404;5.474;2022-09-14T10:51:45;20.50;73.10
45785;DHT22;31489;51.404;5.474;2022-09-14T10:57:40;20.50;72.70
45785;DHT22;31489;51.404;5.474;2022-09-14T11:00:13;20.60;72.90
45785;DHT22;31489;51.404;5.474;2022-09-14T11:05:36;20.60;73.10
45785;DHT22;31489;51.404;5.474;2022-09-14T11:08:23;20.60;73.10
45785;DHT22;31489;51.404;5.474;2022-09-14T11:17:01;20.60;73.10
45785;DHT22;31489;51.404;5.474;2022-09-14T11:22:08;20.70;71.30
45785;DHT22;31489;51.404;5.474;2022-09-14T11:27:25;20.60;71.40
45785;DHT22;31489;51.404;5.474;2022-09-14T11:30:02;20.60;71.10
45785;DHT22;31489;51.404;5.474;2022-09-14T11:33:21;20.60;71.20
45785;DHT22;31489;51.404;5.474;2022-09-14T11:35:51;20.50;70.80
45785;DHT22;31489;51.404;5.474;2022-09-14T11:38:20;20.50;71.00
45785;DHT22;31489;51.404;5.474;2022-09-14T11:40:50;20.50;70.90
45785;DHT22;31489;51.404;5.474;2022-09-14T11:43:29;20.50;71.10
45785;DHT22;31489;51.404;5.474;2022-09-14T11:46:11;20.40;71.80
45785;DHT22;31489;51.404;5.474;2022-09-14T11:51:23;20.40;71.90
45785;DHT22;31489;51.404;5.474;2022-09-14T11:53:49;20.50;72.10
45785;DHT22;31489;51.404;5.474;2022-09-14T11:56:29;20.50;72.20
45785;DHT22;31489;51.404;5.474;2022-09-14T11:58:59;20.50;72.60
45785;DHT22;31489;51.404;5.474;2022-09-14T12:01:35;20.50;72.40
45785;DHT22;31489;51.404;5.474;2022-09-14T12:04:11;20.50;72.30
45785;DHT22;31489;51.404;5.474;2022-09-14T12:06:47;20.50;72.10
45785;DHT22;31489;51.404;5.474;2022-09-14T12:09:37;20.50;72.40
45785;DHT22;31489;51.404;5.474;2022-09-14T12:12:30;20.50;71.90
45785;DHT22;31489;51.404;5.474;2022-09-14T12:14:59;20.50;72.00
45785;DHT22;31489;51.404;5.474;2022-09-14T12:17:31;20.50;72.00
45785;DHT22;31489;51.404;5.474;2022-09-14T12:20:18;20.60;72.10
45785;DHT22;31489;51.404;5.474;2022-09-14T12:22:45;20.50;71.80
45785;DHT22;31489;51.404;5.474;2022-09-14T12:27:37;20.50;71.50
45785;DHT22;31489;51.404;5.474;2022-09-14T12:33:00;20.50;71.20
45785;DHT22;31489;51.404;5.474;2022-09-14T12:40:59;20.50;71.10
45785;DHT22;31489;51.404;5.474;2022-09-14T12:46:07;20.50;71.60
45785;DHT22;31489;51.404;5.474;2022-09-14T12:51:29;20.50;71.80
45785;DHT22;31489;51.404;5.474;2022-09-14T13:04:41;20.60;72.60
45785;DHT22;31489;51.404;5.474;2022-09-14T13:07:17;20.60;72.60
45785;DHT22;31489;51.404;5.474;2022-09-14T13:09:50;20.60;74.00
45785;DHT22;31489;51.404;5.474;2022-09-14T13:12:25;20.60;73.10
45785;DHT22;31489;51.404;5.474;2022-09-14T13:14:52;20.70;72.80
45785;DHT22;31489;51.404;5.474;2022-09-14T13:17:19;20.70;73.20
45785;DHT22;31489;51.404;5.474;2022-09-14T13:20:00;20.80;72.10
45785;DHT22;31489;51.404;5.474;2022-09-14T13:22:31;20.70;72.40
45785;DHT22;31489;51.404;5.474;2022-09-14T13:24:59;20.80;72.20
45785;DHT22;31489;51.404;5.474;2022-09-14T13:27:29;20.80;72.30
45785;DHT22;31489;51.404;5.474;2022-09-14T13:32:29;20.80;72.80
45785;DHT22;31489;51.404;5.474;2022-09-14T13:34:56;20.80;72.60
45785;DHT22;31489;51.404;5.474;2022-09-14T13:37:22;20.80;72.30
45785;DHT22;31489;51.404;5.474;2022-09-14T13:39:50;20.80;72.10
45785;DHT22;31489;51.404;5.474;2022-09-14T13:42:16;20.80;72.00
45785;DHT22;31489;51.404;5.474;2022-09-14T13:44:43;20.80;71.90
45785;DHT22;31489;51.404;5.474;2022-09-14T13:47:13;20.80;71.40
45785;DHT22;31489;51.404;5.474;2022-09-14T13:49:41;20.80;71.90
45785;DHT22;31489;51.404;5.474;2022-09-14T13:52:33;20.80;72.10
45785;DHT22;31489;51.404;5.474;2022-09-14T13:58:04;20.80;71.30
45785;DHT22;31489;51.404;5.474;2022-09-14T14:00:31;20.80;71.50
45785;DHT22;31489;51.404;5.474;2022-09-14T14:03:01;20.70;71.50
45785;DHT22;31489;51.404;5.474;2022-09-14T14:05:33;20.70;72.00
45785;DHT22;31489;51.404;5.474;2022-09-14T14:10:55;20.70;72.40
45785;DHT22;31489;51.404;5.474;2022-09-14T14:13:26;20.70;71.90
45785;DHT22;31489;51.404;5.474;2022-09-14T14:15:52;20.70;71.60
45785;DHT22;31489;51.404;5.474;2022-09-14T14:21:12;20.70;71.60
45785;DHT22;31489;51.404;5.474;2022-09-14T14:23:39;20.70;71.20
45785;DHT22;31489;51.404;5.474;2022-09-14T14:26:12;20.70;71.20
45785;DHT22;31489;51.404;5.474;2022-09-14T14:28:39;20.70;70.80
45785;DHT22;31489;51.404;5.474;2022-09-14T14:31:05;20.70;70.80
45785;DHT22;31489;51.404;5.474;2022-09-14T14:33:44;20.60;70.40
45785;DHT22;31489;51.404;5.474;2022-09-14T14:36:09;20.60;70.40
45785;DHT22;31489;51.404;5.474;2022-09-14T14:38:35;20.60;70.60
45785;DHT22;31489;51.404;5.474;2022-09-14T14:41:02;20.50;70.20
45785;DHT22;31489;51.404;5.474;2022-09-14T14:43:27;20.50;70.50
45785;DHT22;31489;51.404;5.474;2022-09-14T14:45:57;20.50;70.60
45785;DHT22;31489;51.404;5.474;2022-09-14T14:48:23;20.50;70.20
45785;DHT22;31489;51.404;5.474;2022-09-14T14:50:49;20.40;71.10
45785;DHT22;31489;51.404;5.474;2022-09-14T14:53:14;20.40;71.50
45785;DHT22;31489;51.404;5.474;2022-09-14T14:55:40;20.40;71.70
45785;DHT22;31489;51.404;5.474;2022-09-14T14:58:10;20.40;71.60
45785;DHT22;31489;51.404;5.474;2022-09-14T15:00:38;20.40;71.90
45785;DHT22;31489;51.404;5.474;2022-09-14T15:03:04;20.40;71.30
45785;DHT22;31489;51.404;5.474;2022-09-14T15:05:29;20.40;71.60
45785;DHT22;31489;51.404;5.474;2022-09-14T15:07:56;20.40;72.00
45785;DHT22;31489;51.404;5.474;2022-09-14T15:10:23;20.40;71.60
45785;DHT22;31489;51.404;5.474;2022-09-14T15:12:49;20.50;72.00
45785;DHT22;31489;51.404;5.474;2022-09-14T15:15:18;20.50;72.00
45785;DHT22;31489;51.404;5.474;2022-09-14T15:17:44;20.40;72.30
45785;DHT22;31489;51.404;5.474;2022-09-14T15:20:11;20.50;72.10
45785;DHT22;31489;51.404;5.474;2022-09-14T15:22:37;20.50;72.40
45785;DHT22;31489;51.404;5.474;2022-09-14T15:25:03;20.50;72.30
45785;DHT22;31489;51.404;5.474;2022-09-14T15:27:29;20.50;72.50
45785;DHT22;31489;51.404;5.474;2022-09-14T15:29:55;20.50;72.00
45785;DHT22;31489;51.404;5.474;2022-09-14T15:32:21;20.50;72.00
45785;DHT22;31489;51.404;5.474;2022-09-14T15:34:47;20.50;72.00
45785;DHT22;31489;51.404;5.474;2022-09-14T15:37:12;20.50;72.00
45785;DHT22;31489;51.404;5.474;2022-09-14T15:39:38;20.50;71.70
45785;DHT22;31489;51.404;5.474;2022-09-14T15:42:04;20.50;71.90
45785;DHT22;31489;51.404;5.474;2022-09-14T15:44:29;20.50;72.10
45785;DHT22;31489;51.404;5.474;2022-09-14T15:46:57;20.40;72.20
45785;DHT22;31489;51.404;5.474;2022-09-14T15:49:24;20.40;72.30
45785;DHT22;31489;51.404;5.474;2022-09-14T15:51:53;20.40;72.30
45785;DHT22;31489;51.404;5.474;2022-09-14T15:54:24;20.40;72.20
45785;DHT22;31489;51.404;5.474;2022-09-14T15:56:52;20.40;72.20
45785;DHT22;31489;51.404;5.474;2022-09-14T15:59:19;20.50;72.10
45785;DHT22;31489;51.404;5.474;2022-09-14T16:01:45;20.50;72.20
45785;DHT22;31489;51.404;5.474;2022-09-14T16:04:11;20.50;72.20
45785;DHT22;31489;51.404;5.474;2022-09-14T16:06:37;20.50;72.40
45785;DHT22;31489;51.404;5.474;2022-09-14T16:09:05;20.50;72.40
45785;DHT22;31489;51.404;5.474;2022-09-14T16:11:32;20.50;72.50
45785;DHT22;31489;51.404;5.474;2022-09-14T16:13:58;20.50;72.50
45785;DHT22;31489;51.404;5.474;2022-09-14T16:16:24;20.50;72.40
45785;DHT22;31489;51.404;5.474;2022-09-14T16:18:49;20.50;72.30
45785;DHT22;31489;51.404;5.474;2022-09-14T16:21:26;20.50;71.90
45785;DHT22;31489;51.404;5.474;2022-09-14T16:23:57;20.50;71.90
45785;DHT22;31489;51.404;5.474;2022-09-14T16:26:26;20.50;72.00
45785;DHT22;31489;51.404;5.474;2022-09-14T16:28:53;20.50;71.60
45785;DHT22;31489;51.404;5.474;2022-09-14T16:31:24;20.50;71.90
45785;DHT22;31489;51.404;5.474;2022-09-14T16:33:52;20.50;72.20
45785;DHT22;31489;51.404;5.474;2022-09-14T16:36:23;20.50;72.00
45785;DHT22;31489;51.404;5.474;2022-09-14T16:38:50;20.50;72.20
45785;DHT22;31489;51.404;5.474;2022-09-14T16:41:16;20.50;71.70
45785;DHT22;31489;51.404;5.474;2022-09-14T16:43:43;20.50;71.90
45785;DHT22;31489;51.404;5.474;2022-09-14T16:46:10;20.50;71.80
45785;DHT22;31489;51.404;5.474;2022-09-14T16:48:43;20.50;71.90
45785;DHT22;31489;51.404;5.474;2022-09-14T16:51:10;20.50;71.50
45785;DHT22;31489;51.404;5.474;2022-09-14T16:53:38;20.40;71.50
45785;DHT22;31489;51.404;5.474;2022-09-14T16:56:09;20.40;71.60
45785;DHT22;31489;51.404;5.474;2022-09-14T16:58:36;20.40;71.50
45785;DHT22;31489;51.404;5.474;2022-09-14T17:01:07;20.40;71.60
45785;DHT22;31489;51.404;5.474;2022-09-14T17:03:34;20.40;71.70
45785;DHT22;31489;51.404;5.474;2022-09-14T17:06:04;20.40;71.40
45785;DHT22;31489;51.404;5.474;2022-09-14T17:08:31;20.40;71.60
45785;DHT22;31489;51.404;5.474;2022-09-14T17:10:58;20.30;71.40
45785;DHT22;31489;51.404;5.474;2022-09-14T17:13:24;20.40;71.50
45785;DHT22;31489;51.404;5.474;2022-09-14T17:15:51;20.30;71.50
45785;DHT22;31489;51.404;5.474;2022-09-14T17:18:17;20.30;71.30
45785;DHT22;31489;51.404;5.474;2022-09-14T17:21:03;20.30;71.30
45785;DHT22;31489;51.404;5.474;2022-09-14T17:23:29;20.30;71.80
45785;DHT22;31489;51.404;5.474;2022-09-14T17:25:55;20.30;71.40
45785;DHT22;31489;51.404;5.474;2022-09-14T17:28:23;20.30;72.00
45785;DHT22;31489;51.404;5.474;2022-09-14T17:30:55;20.30;71.40
45785;DHT22;31489;51.404;5.474;2022-09-14T17:33:22;20.30;71.70
45785;DHT22;31489;51.404;5.474;2022-09-14T17:35:50;20.20;71.50